Terminal Aerodrome Forecast
Issued by NWS

Home | Current Version | Previous Version | Text Only | Print | Product List | Glossary Off
Versions: 1 2 3 4 5 6 7 8 9 10 11 12 13

000
FTUS43 KSGF 180500
TAFJLN
TAF
KJLN 180520Z 1806/1906 02005KT 6SM BR OVC090
     FM180800 06003KT 4SM BR SCT090
      TEMPO 1810/1813 2SM BR
     FM181300 09005KT P6SM SCT045
     FM190100 12005KT P6SM SKC=

USA.gov is the U.S. government's official web portal to all federal, state and local government web resources and services.